Shaw, Minnesota
Current Conditions -  °F | °C
As of 4:55 AM on Friday 21 Nov 2014 (Local Time) from KDLH Reporting Station
Scattered Clouds Scattered Clouds  
Wind Chill: -7°   Ceiling: Unl
Heat Index:   Visibility: 10mi
Dew Point: -1°   Wind: 8mph
Humidity: 73%   Direction: 210°SSW
Pressure: 30.11"   Gusts: NA
Location:  47.068°N, 92.4547°W
Report Text: KDLH 211055Z 21007KT 10SM SCT120 M14/M18 A3011 RMK AO2 SLP234 T11441183
Loading
Personal Weather Stations






























Interactive Weather Map New forecast layout! Learn more

10-Day Weather Forecast

Advertisements
Track Severe Weather on mobile